KCKB/CKB METAR and TAF weather

Enter ICAO airport designator
Station Type Date Time Source
KCKB METAR 2019/12/08 13:53 UTC NOAA

KCKB 081353Z 00000KT 10SM CLR M01/M04 A3027 RMK AO2 SLP259 T10111039 $


Station Type Date Time Source
KCKB Decoded METAR 2019/12/08 13:53 UTC NOAA

HARRISON/MARION REGIONAL, WV, United States (KCKB) 39-18N 080-13W 360M
Dec 08, 2019 - 08:53 AM EST / 2019.12.08 1353 UTC
Wind: Calm:0
Visibility: 10 mile(s):0
Sky conditions: clear
Temperature: 30.0 F (-1.1 C)
Dew Point: 25.0 F (-3.9 C)
Relative Humidity: 81%
Pressure (altimeter): 30.27 in. Hg (1025 hPa)
ob: KCKB 081353Z 00000KT 10SM CLR M01/M04 A3027 RMK AO2 SLP259 T10111039
cycle: 14

Station Type Date Time Source
KCKB TAF 2019/12/08 12:36 UTC NOAA

TAF KCKB 081133Z 0812/0912 14004KT P6SM SCT200
FM081500 18009KT P6SM BKN120
FM081700 18011G19KT P6SM BKN070
FM082200 17008KT P6SM BKN060
FM090600 14006KT P6SM OVC050
FM090900 17005KT 6SM -SHRA OVC035

Example: see airport list